createdAt,value
2017-12-27T00:02:12.527Z,4.40
2017-12-27T00:04:45.648Z,4.40
2017-12-27T00:07:19.572Z,4.30
2017-12-27T00:09:53.479Z,4.30
2017-12-27T00:12:26.537Z,4.30
2017-12-27T00:15:00.592Z,4.30
2017-12-27T00:17:33.608Z,4.30
2017-12-27T00:20:06.742Z,4.30
2017-12-27T00:22:39.880Z,4.30
2017-12-27T00:25:12.980Z,4.40
2017-12-27T00:27:46.022Z,4.50
2017-12-27T00:30:19.163Z,4.50
2017-12-27T00:32:46.602Z,4.60
2017-12-27T00:35:14.060Z,4.70
2017-12-27T00:37:41.492Z,4.70
2017-12-27T00:40:08.959Z,4.70
2017-12-27T00:42:36.417Z,4.70
2017-12-27T00:45:04.642Z,4.90
2017-12-27T00:47:32.088Z,4.90
2017-12-27T00:50:00.299Z,4.70
2017-12-27T00:52:27.864Z,4.70
2017-12-27T00:54:55.331Z,4.80
2017-12-27T00:57:23.567Z,4.80
2017-12-27T00:59:51.010Z,4.80
2017-12-27T01:02:18.467Z,4.80
2017-12-27T01:04:46.692Z,4.90
2017-12-27T01:07:14.135Z,4.90
2017-12-27T01:09:41.636Z,4.80
2017-12-27T01:12:09.099Z,4.80
2017-12-27T01:14:36.563Z,4.80
2017-12-27T01:17:04.779Z,5.00
2017-12-27T01:19:32.244Z,5.00
2017-12-27T01:21:59.699Z,4.90
2017-12-27T01:24:27.901Z,5.00
2017-12-27T01:26:56.114Z,4.90
2017-12-27T01:29:27.803Z,5.00
2017-12-27T01:31:55.233Z,4.90
2017-12-27T01:34:23.456Z,4.90
2017-12-27T01:36:50.901Z,4.90
2017-12-27T01:39:19.137Z,4.80
2017-12-27T01:41:46.584Z,4.80
2017-12-27T01:44:14.039Z,4.80
2017-12-27T01:46:42.255Z,4.70
2017-12-27T01:49:09.728Z,4.70
2017-12-27T01:51:37.246Z,4.70
2017-12-27T01:54:04.714Z,4.70
2017-12-27T01:56:32.168Z,4.80
2017-12-27T01:58:59.599Z,4.70
2017-12-27T02:01:27.816Z,4.60
2017-12-27T02:03:55.344Z,4.60
2017-12-27T02:06:22.824Z,4.70
2017-12-27T02:08:50.265Z,4.70
2017-12-27T02:11:17.709Z,4.80
2017-12-27T02:13:45.182Z,4.80
2017-12-27T02:16:12.611Z,4.70
2017-12-27T02:18:40.068Z,4.70
2017-12-27T02:21:07.520Z,4.60
2017-12-27T02:23:35.074Z,4.50
2017-12-27T02:28:35.040Z,4.70
2017-12-27T02:31:03.382Z,4.70
2017-12-27T02:33:31.583Z,4.70
2017-12-27T02:35:59.073Z,4.70
2017-12-27T02:38:49.168Z,4.70
2017-12-27T02:41:16.623Z,4.60
2017-12-27T02:43:44.110Z,4.50
2017-12-27T02:46:11.600Z,4.50
2017-12-27T02:48:39.887Z,4.50
2017-12-27T02:51:07.424Z,4.60
2017-12-27T02:53:34.993Z,4.60
2017-12-27T02:56:02.541Z,4.50
2017-12-27T02:58:30.196Z,4.60
2017-12-27T03:01:01.853Z,4.70
2017-12-27T03:03:31.336Z,4.60
2017-12-27T03:06:02.073Z,4.60
2017-12-27T03:08:34.722Z,4.50
2017-12-27T03:11:07.609Z,4.40
2017-12-27T03:25:54.464Z,4.40
2017-12-27T03:28:22.873Z,4.50
2017-12-27T03:30:50.468Z,4.50
2017-12-27T03:33:18.668Z,4.60
2017-12-27T03:35:46.156Z,4.50
2017-12-27T03:38:13.715Z,4.50
2017-12-27T03:40:41.305Z,4.40
2017-12-27T03:43:08.827Z,4.30
2017-12-27T03:45:36.392Z,4.40
2017-12-27T03:48:04.655Z,4.30
2017-12-27T03:50:32.123Z,4.30
2017-12-27T03:52:59.678Z,4.40
2017-12-27T03:55:27.115Z,4.50
2017-12-27T03:57:55.346Z,4.40
2017-12-27T04:00:22.790Z,4.40
2017-12-27T04:02:51.016Z,4.50
2017-12-27T04:05:18.487Z,4.50
2017-12-27T04:07:45.923Z,4.60
2017-12-27T04:10:14.140Z,4.60
2017-12-27T04:12:41.610Z,4.60
2017-12-27T04:15:09.092Z,4.70
2017-12-27T04:17:36.533Z,4.60
2017-12-27T04:20:04.755Z,4.70
2017-12-27T04:22:32.274Z,4.70
2017-12-27T04:24:59.742Z,4.70
2017-12-27T04:27:27.191Z,4.70
2017-12-27T04:29:54.659Z,4.70
2017-12-27T04:32:22.381Z,4.80
2017-12-27T04:34:49.893Z,4.80
2017-12-27T04:37:18.168Z,4.80
2017-12-27T04:39:45.776Z,4.80
2017-12-27T04:42:13.538Z,4.80
2017-12-27T04:44:41.094Z,4.80
2017-12-27T04:47:08.634Z,4.80
2017-12-27T04:49:36.157Z,4.80
2017-12-27T04:52:03.668Z,4.80
2017-12-27T04:54:31.184Z,4.80
2017-12-27T05:11:36.065Z,4.70
2017-12-27T05:14:03.507Z,4.90
2017-12-27T05:16:30.979Z,5.00
2017-12-27T05:18:58.459Z,5.10
2017-12-27T05:21:25.901Z,5.00
2017-12-27T05:23:53.475Z,4.90
2017-12-27T05:26:20.932Z,4.90
2017-12-27T05:28:49.174Z,5.00
2017-12-27T05:31:16.646Z,5.00
2017-12-27T05:33:44.117Z,5.10
2017-12-27T05:36:11.591Z,5.00
2017-12-27T05:38:39.173Z,5.00
2017-12-27T05:41:06.644Z,5.10
2017-12-27T05:43:34.127Z,5.10
2017-12-27T05:46:01.580Z,5.00
2017-12-27T05:48:29.072Z,5.20
2017-12-27T05:50:56.535Z,5.20
2017-12-27T05:53:23.989Z,5.10
2017-12-27T05:55:51.449Z,5.00
2017-12-27T05:58:19.682Z,5.10
2017-12-27T06:00:47.168Z,5.10
2017-12-27T06:03:14.620Z,5.00
2017-12-27T06:05:42.144Z,4.90
2017-12-27T06:08:09.582Z,4.90
2017-12-27T06:10:37.036Z,4.90
2017-12-27T06:13:04.538Z,4.90
2017-12-27T06:15:31.999Z,4.80
2017-12-27T06:17:59.467Z,4.80
2017-12-27T06:20:26.918Z,4.80
2017-12-27T06:22:55.148Z,4.80
2017-12-27T06:25:22.629Z,4.80
2017-12-27T06:27:50.105Z,4.80
2017-12-27T06:30:17.608Z,4.70
2017-12-27T06:32:45.134Z,4.70
2017-12-27T06:35:12.625Z,4.70
2017-12-27T06:37:40.120Z,4.80
2017-12-27T06:40:07.733Z,4.70
2017-12-27T06:42:35.983Z,4.70
2017-12-27T06:45:03.445Z,4.70
2017-12-27T06:47:30.880Z,4.70
2017-12-27T06:49:58.366Z,4.60
2017-12-27T06:52:26.670Z,4.70
2017-12-27T06:54:54.287Z,4.60
2017-12-27T06:57:21.746Z,4.60
2017-12-27T06:59:49.215Z,4.60
2017-12-27T07:02:16.688Z,4.60
2017-12-27T07:04:44.137Z,4.70
2017-12-27T07:07:12.355Z,4.90
2017-12-27T07:09:39.880Z,4.90
2017-12-27T07:12:07.357Z,5.00
2017-12-27T07:14:34.812Z,5.10
2017-12-27T07:17:02.303Z,5.10
2017-12-27T07:19:30.614Z,5.20
2017-12-27T07:21:58.826Z,5.20
2017-12-27T07:24:26.338Z,5.20
2017-12-27T07:26:53.822Z,5.00
2017-12-27T07:29:21.283Z,5.00
2017-12-27T07:31:48.736Z,5.00
2017-12-27T07:34:16.202Z,4.90
2017-12-27T07:36:43.674Z,4.90
2017-12-27T07:39:11.203Z,4.90
2017-12-27T07:41:39.405Z,4.90
2017-12-27T07:44:06.867Z,4.90
2017-12-27T07:46:34.308Z,4.80
2017-12-27T07:49:01.796Z,4.70
2017-12-27T07:51:29.251Z,4.60
2017-12-27T07:53:56.747Z,4.80
2017-12-27T07:56:24.195Z,4.80
2017-12-27T07:58:52.163Z,4.80
2017-12-27T08:01:20.403Z,4.70
2017-12-27T08:03:47.848Z,4.70
2017-12-27T08:06:15.324Z,4.90
2017-12-27T08:08:43.042Z,5.00
2017-12-27T08:11:10.955Z,4.90
2017-12-27T08:26:28.465Z,4.90
2017-12-27T08:28:57.045Z,5.50
2017-12-27T08:31:30.270Z,5.50
2017-12-27T08:33:57.783Z,5.50
2017-12-27T08:36:25.249Z,5.50
2017-12-27T08:38:53.456Z,5.50
2017-12-27T08:54:10.947Z,5.60
2017-12-27T08:56:38.771Z,5.60
2017-12-27T08:59:06.235Z,5.50
2017-12-27T09:01:33.826Z,5.60
2017-12-27T09:16:53.179Z,5.70
2017-12-27T09:19:22.045Z,5.70
2017-12-27T09:21:49.516Z,5.70
2017-12-27T09:24:16.996Z,5.70
2017-12-27T09:26:48.647Z,5.60
2017-12-27T09:29:16.911Z,5.70
2017-12-27T09:31:46.245Z,5.80
2017-12-27T09:34:13.704Z,5.80
2017-12-27T09:36:42.259Z,5.80
2017-12-27T09:39:10.004Z,5.80
2017-12-27T09:51:17.476Z,5.80
2017-12-27T10:03:24.996Z,5.80
2017-12-27T10:05:56.875Z,6.10
2017-12-27T10:08:25.422Z,6.00
2017-12-27T10:10:53.724Z,6.00
2017-12-27T10:13:22.255Z,6.20
2017-12-27T10:15:52.301Z,6.20
2017-12-27T10:18:20.551Z,6.20
2017-12-27T10:20:48.725Z,6.30
2017-12-27T10:23:16.678Z,6.40
2017-12-27T10:38:38.112Z,6.30
2017-12-27T10:41:06.707Z,6.40
2017-12-27T10:43:34.172Z,6.50
2017-12-27T10:58:51.984Z,6.60
2017-12-27T11:01:19.791Z,6.90
2017-12-27T11:03:48.968Z,7.00
2017-12-27T11:15:56.668Z,7.00
2017-12-27T11:18:24.147Z,7.00
2017-12-27T11:20:52.387Z,7.00
2017-12-27T11:23:23.805Z,7.00
2017-12-27T11:25:52.279Z,7.30
2017-12-27T11:28:24.621Z,7.30
2017-12-27T11:30:52.397Z,7.30
2017-12-27T11:33:20.359Z,7.30
2017-12-27T11:35:49.164Z,7.50
2017-12-27T11:38:17.388Z,7.40
2017-12-27T11:40:45.133Z,7.40
2017-12-27T11:56:03.013Z,7.40
2017-12-27T11:58:31.586Z,7.50
2017-12-27T12:00:59.076Z,7.50
2017-12-27T12:03:26.566Z,7.50
2017-12-27T12:18:44.252Z,7.40
2017-12-27T12:21:11.929Z,7.60
2017-12-27T12:23:40.841Z,7.40
2017-12-27T12:26:08.658Z,7.40
2017-12-27T12:28:36.188Z,7.40
2017-12-27T12:31:04.168Z,7.50
2017-12-27T12:33:32.086Z,7.40
2017-12-27T12:35:59.886Z,7.40
2017-12-27T12:38:27.675Z,7.50
2017-12-27T12:40:55.135Z,7.50
2017-12-27T12:43:24.031Z,7.50
2017-12-27T12:45:52.151Z,7.50
2017-12-27T12:48:20.641Z,7.60
2017-12-27T12:50:48.354Z,7.60
2017-12-27T13:02:56.444Z,7.50
2017-12-27T13:05:23.919Z,7.30
2017-12-27T13:07:51.420Z,7.30
2017-12-27T13:10:22.866Z,7.30
2017-12-27T13:22:30.639Z,7.30
2017-12-27T13:34:38.167Z,7.30
2017-12-27T13:37:05.635Z,7.40
2017-12-27T13:39:33.819Z,7.30
2017-12-27T13:42:01.324Z,7.30
2017-12-27T13:44:28.915Z,7.40
2017-12-27T13:46:56.455Z,7.30
2017-12-27T13:49:24.231Z,7.40
2017-12-27T14:01:31.687Z,7.40
2017-12-27T14:03:59.173Z,7.50
2017-12-27T14:19:16.661Z,7.50
2017-12-27T14:34:36.645Z,7.40
2017-12-27T14:37:05.020Z,7.40
2017-12-27T14:39:32.832Z,7.50
2017-12-27T14:42:00.667Z,7.60
2017-12-27T14:44:28.340Z,7.40
2017-12-27T14:59:46.655Z,7.60
2017-12-27T15:11:54.206Z,7.60
2017-12-27T15:14:27.256Z,7.40
2017-12-27T15:16:55.531Z,7.50
2017-12-27T15:19:24.389Z,7.50
2017-12-27T15:21:56.003Z,7.40
2017-12-27T15:24:23.700Z,7.40
2017-12-27T15:39:41.208Z,7.40
2017-12-27T15:42:08.762Z,7.60
2017-12-27T15:44:37.035Z,7.70
2017-12-27T15:47:05.162Z,7.70
2017-12-27T15:49:32.660Z,7.50
2017-12-27T15:52:01.041Z,7.50
2017-12-27T15:54:28.710Z,7.50
2017-12-27T15:56:56.182Z,7.50
2017-12-27T15:59:23.663Z,7.50
2017-12-27T16:01:51.085Z,7.50
2017-12-27T16:04:18.665Z,7.50
2017-12-27T16:06:46.160Z,7.50
2017-12-27T16:09:13.649Z,7.50
2017-12-27T16:11:41.127Z,7.40
2017-12-27T16:14:09.168Z,7.30
2017-12-27T16:16:36.644Z,7.40
2017-12-27T16:19:04.457Z,7.40
2017-12-27T16:21:32.005Z,7.40
2017-12-27T16:24:00.237Z,7.40
2017-12-27T16:26:27.719Z,7.40
2017-12-27T16:28:55.744Z,7.30
2017-12-27T16:31:24.038Z,7.30
2017-12-27T16:33:52.311Z,7.20
2017-12-27T16:36:20.034Z,7.20
2017-12-27T16:38:51.863Z,7.20
2017-12-27T16:41:19.392Z,7.20
2017-12-27T16:43:47.179Z,7.20
2017-12-27T16:46:14.646Z,7.20
2017-12-27T16:48:42.202Z,7.10
2017-12-27T16:51:14.793Z,7.00
2017-12-27T16:53:43.040Z,7.00
2017-12-27T16:56:10.540Z,7.00
2017-12-27T16:58:38.086Z,7.10
2017-12-27T17:01:05.572Z,7.00
2017-12-27T17:03:33.006Z,7.00
2017-12-27T17:06:01.445Z,6.90
2017-12-27T17:08:28.995Z,6.80
2017-12-27T17:10:56.493Z,6.70
2017-12-27T17:13:23.992Z,6.70
2017-12-27T17:15:51.484Z,6.80
2017-12-27T17:18:18.944Z,6.80
2017-12-27T17:20:46.422Z,6.80
2017-12-27T17:23:13.893Z,6.80
2017-12-27T17:25:41.371Z,6.80
2017-12-27T17:28:08.843Z,6.80
2017-12-27T17:30:36.301Z,6.70
2017-12-27T17:33:03.755Z,6.80
2017-12-27T17:35:31.750Z,6.80
2017-12-27T17:37:59.221Z,6.70
2017-12-27T17:40:27.443Z,6.70
2017-12-27T17:42:54.925Z,6.70
2017-12-27T17:45:22.467Z,6.70
2017-12-27T17:47:49.973Z,6.60
2017-12-27T17:50:17.556Z,6.50
2017-12-27T17:52:45.078Z,6.50
2017-12-27T17:55:12.554Z,6.60
2017-12-27T17:57:40.028Z,6.50
2017-12-27T18:00:10.064Z,6.60
2017-12-27T18:02:37.531Z,6.50
2017-12-27T18:05:05.033Z,6.50
2017-12-27T18:07:32.505Z,6.50
2017-12-27T18:09:59.981Z,6.60
2017-12-27T18:12:27.472Z,6.50
2017-12-27T18:14:54.994Z,6.60
2017-12-27T18:17:23.268Z,6.50
2017-12-27T18:19:50.763Z,6.50
2017-12-27T18:22:20.317Z,6.50
2017-12-27T18:24:47.788Z,6.50
2017-12-27T18:27:15.867Z,6.50
2017-12-27T18:29:43.341Z,6.60
2017-12-27T18:32:10.801Z,6.50
2017-12-27T18:34:38.293Z,6.60
2017-12-27T18:37:05.770Z,6.60
2017-12-27T18:39:34.026Z,6.60
2017-12-27T18:42:02.084Z,6.60
2017-12-27T18:44:29.623Z,6.60
2017-12-27T18:46:57.103Z,6.50
2017-12-27T18:49:24.601Z,6.50
2017-12-27T18:51:52.136Z,6.50
2017-12-27T18:54:20.381Z,6.60
2017-12-27T18:56:47.903Z,6.60
2017-12-27T18:59:16.131Z,6.60
2017-12-27T19:01:44.194Z,6.60
2017-12-27T19:04:11.634Z,6.60
2017-12-27T19:06:39.099Z,6.50
2017-12-27T19:09:06.598Z,6.60
2017-12-27T19:11:34.089Z,6.60
2017-12-27T19:14:02.696Z,6.50
2017-12-27T19:16:30.990Z,6.60
2017-12-27T19:18:59.416Z,6.50
2017-12-27T19:21:26.993Z,6.60
2017-12-27T19:23:54.563Z,6.70
2017-12-27T19:26:22.104Z,6.70
2017-12-27T19:28:49.586Z,6.80
2017-12-27T19:31:17.855Z,6.70
2017-12-27T19:33:45.398Z,6.70
2017-12-27T19:36:12.960Z,6.80
2017-12-27T19:38:40.485Z,6.80
2017-12-27T19:41:07.943Z,6.70
2017-12-27T19:43:35.526Z,6.60
2017-12-27T19:46:02.989Z,6.70
2017-12-27T19:48:30.851Z,6.70
2017-12-27T19:50:58.800Z,6.60
2017-12-27T19:53:27.015Z,6.50
2017-12-27T19:55:54.512Z,6.50
2017-12-27T19:58:22.024Z,6.50
2017-12-27T20:00:49.545Z,6.40
2017-12-27T20:03:17.017Z,6.40
2017-12-27T20:05:44.602Z,6.30
2017-12-27T20:08:16.099Z,6.30
2017-12-27T20:10:43.614Z,6.30
2017-12-27T20:13:11.152Z,6.40
2017-12-27T20:15:38.644Z,6.30
2017-12-27T20:18:06.131Z,6.30
2017-12-27T20:20:33.749Z,6.30
2017-12-27T20:23:01.970Z,6.30
2017-12-27T20:25:29.567Z,6.20
2017-12-27T20:27:57.119Z,6.20
2017-12-27T20:30:24.610Z,6.30
2017-12-27T20:32:52.099Z,6.30
2017-12-27T20:35:19.551Z,6.30
2017-12-27T20:37:47.087Z,6.40
2017-12-27T20:40:15.174Z,6.40
2017-12-27T20:42:43.430Z,6.40
2017-12-27T20:45:10.925Z,6.40
2017-12-27T20:47:40.309Z,6.40
2017-12-27T20:50:07.818Z,6.40
2017-12-27T20:52:35.295Z,6.40
2017-12-27T20:55:03.592Z,6.50
2017-12-27T20:57:31.952Z,6.50
2017-12-27T21:00:00.684Z,6.50
2017-12-27T21:12:08.969Z,6.30
2017-12-27T21:14:36.509Z,6.30
2017-12-27T21:17:04.088Z,6.30
2017-12-27T21:19:31.774Z,6.30
2017-12-27T21:22:07.240Z,6.30
2017-12-27T21:24:34.782Z,6.30
2017-12-27T21:27:02.302Z,6.40
2017-12-27T21:29:29.976Z,6.40
2017-12-27T21:31:57.478Z,6.30
2017-12-27T21:34:24.966Z,6.30
2017-12-27T21:36:52.449Z,6.40
2017-12-27T21:39:20.048Z,6.30
2017-12-27T21:41:47.541Z,6.30
2017-12-27T21:44:15.065Z,6.30
2017-12-27T21:46:42.533Z,6.20
2017-12-27T21:49:16.637Z,6.30
2017-12-27T21:51:44.887Z,6.20
2017-12-27T21:54:12.419Z,6.20
2017-12-27T21:56:40.643Z,6.30
2017-12-27T21:59:13.832Z,6.30
2017-12-27T22:01:42.057Z,6.20
2017-12-27T22:04:09.563Z,6.20
2017-12-27T22:06:37.029Z,6.10
2017-12-27T22:09:05.452Z,6.10
2017-12-27T22:11:34.308Z,6.20
2017-12-27T22:14:01.954Z,6.20
2017-12-27T22:16:29.449Z,6.20
2017-12-27T22:19:01.094Z,6.20
2017-12-27T22:21:28.596Z,6.10
2017-12-27T22:23:56.109Z,6.10
2017-12-27T22:26:23.809Z,6.10
2017-12-27T22:28:51.264Z,6.10
2017-12-27T22:31:18.805Z,6.10
2017-12-27T22:33:46.318Z,6.10
2017-12-27T22:36:13.887Z,6.10
2017-12-27T22:38:41.325Z,6.10
2017-12-27T22:41:08.792Z,6.00
2017-12-27T22:43:36.238Z,6.00
2017-12-27T22:46:04.505Z,5.90
2017-12-27T22:48:31.935Z,5.90
2017-12-27T22:50:59.383Z,5.90
2017-12-27T22:53:27.623Z,5.90
2017-12-27T22:55:55.146Z,5.90
2017-12-27T22:58:23.369Z,6.00
2017-12-27T23:00:50.797Z,6.00
2017-12-27T23:03:18.290Z,5.90
2017-12-27T23:05:46.502Z,5.80
2017-12-27T23:08:13.967Z,5.80
2017-12-27T23:10:41.464Z,5.80
2017-12-27T23:13:08.927Z,5.70
2017-12-27T23:15:40.251Z,5.80
2017-12-27T23:18:07.741Z,5.80
2017-12-27T23:20:35.986Z,5.80
2017-12-27T23:23:04.262Z,5.70
2017-12-27T23:25:32.533Z,5.80
2017-12-27T23:27:59.977Z,5.80
2017-12-27T23:30:27.516Z,5.80
2017-12-27T23:32:54.978Z,5.80
2017-12-27T23:35:22.443Z,5.80
2017-12-27T23:37:49.913Z,5.80
2017-12-27T23:40:18.156Z,5.80
2017-12-27T23:42:45.594Z,5.80
2017-12-27T23:45:13.085Z,5.70
2017-12-27T23:47:40.558Z,5.70
2017-12-27T23:50:08.034Z,5.70
2017-12-27T23:52:35.540Z,5.70
2017-12-27T23:55:03.044Z,5.70
2017-12-27T23:57:30.560Z,5.70
2017-12-27T23:59:58.147Z,5.60
